createdAt,value
2018-06-23T00:02:01.447Z,12.30
2018-06-23T00:04:35.258Z,12.30
2018-06-23T00:07:09.433Z,12.30
2018-06-23T00:09:43.189Z,12.30
2018-06-23T00:12:17.002Z,12.30
2018-06-23T00:14:50.851Z,12.20
2018-06-23T00:17:24.664Z,12.20
2018-06-23T00:19:58.556Z,12.20
2018-06-23T00:22:32.503Z,12.30
2018-06-23T00:25:06.287Z,12.20
2018-06-23T00:27:40.210Z,12.20
2018-06-23T00:30:14.091Z,12.20
2018-06-23T00:32:48.324Z,12.20
2018-06-23T00:35:22.193Z,12.20
2018-06-23T00:37:55.947Z,12.20
2018-06-23T00:40:30.517Z,12.20
2018-06-23T00:43:04.298Z,12.20
2018-06-23T00:45:38.167Z,12.20
2018-06-23T00:48:11.937Z,12.20
2018-06-23T00:50:45.921Z,12.20
2018-06-23T00:53:19.716Z,12.20
2018-06-23T00:55:53.509Z,12.20
2018-06-23T00:58:27.288Z,12.20
2018-06-23T01:01:01.136Z,12.10
2018-06-23T01:03:34.853Z,12.20
2018-06-23T01:06:08.881Z,12.20
2018-06-23T01:08:42.648Z,12.20
2018-06-23T01:11:16.396Z,12.20
2018-06-23T01:13:50.210Z,12.10
2018-06-23T01:16:23.991Z,12.20
2018-06-23T01:18:57.746Z,12.20
2018-06-23T01:21:31.568Z,12.20
2018-06-23T01:24:05.335Z,12.20
2018-06-23T01:26:39.044Z,12.30
2018-06-23T01:29:12.829Z,12.30
2018-06-23T01:31:46.590Z,12.30
2018-06-23T01:34:20.333Z,12.40
2018-06-23T01:36:54.519Z,12.40
2018-06-23T01:39:28.298Z,12.50
2018-06-23T01:42:02.047Z,12.50
2018-06-23T01:44:35.794Z,12.50
2018-06-23T01:47:09.551Z,12.40
2018-06-23T01:49:43.225Z,12.40
2018-06-23T01:52:16.932Z,12.30
2018-06-23T01:54:50.602Z,12.30
2018-06-23T01:57:24.327Z,12.30
2018-06-23T01:59:58.179Z,12.30
2018-06-23T02:02:31.940Z,12.30
2018-06-23T02:05:05.888Z,12.30
2018-06-23T02:07:39.643Z,12.30
2018-06-23T02:10:13.483Z,12.30
2018-06-23T02:12:47.441Z,12.30
2018-06-23T02:15:24.943Z,12.30
2018-06-23T02:18:03.473Z,12.30
2018-06-23T02:22:45.297Z,12.30
2018-06-23T02:25:23.654Z,12.30
2018-06-23T02:29:03.600Z,12.30
2018-06-23T02:31:42.201Z,12.30
2018-06-23T02:34:20.644Z,12.20
2018-06-23T02:36:54.513Z,12.20
2018-06-23T02:39:28.749Z,12.20
2018-06-23T02:42:02.554Z,12.20
2018-06-23T02:44:36.331Z,12.20
2018-06-23T02:47:10.245Z,12.20
2018-06-23T02:49:44.137Z,12.20
2018-06-23T02:52:17.901Z,12.20
2018-06-23T02:54:51.706Z,12.30
2018-06-23T02:57:25.440Z,12.30
2018-06-23T02:59:59.261Z,12.40
2018-06-23T03:02:33.032Z,12.40
2018-06-23T03:05:07.023Z,12.40
2018-06-23T03:07:40.741Z,12.40
2018-06-23T03:10:14.484Z,12.40
2018-06-23T03:12:48.292Z,12.40
2018-06-23T03:15:22.042Z,12.40
2018-06-23T03:17:55.796Z,12.30
2018-06-23T03:20:31.530Z,12.30
2018-06-23T03:23:05.253Z,12.30
2018-06-23T03:25:39.025Z,12.30
2018-06-23T03:28:13.043Z,12.30
2018-06-23T03:30:46.827Z,12.30
2018-06-23T03:33:20.524Z,12.30
2018-06-23T03:35:54.197Z,12.30
2018-06-23T03:38:27.953Z,12.40
2018-06-23T03:41:01.670Z,12.40
2018-06-23T03:43:35.352Z,12.40
2018-06-23T03:46:09.109Z,12.50
2018-06-23T03:48:42.870Z,12.50
2018-06-23T03:51:16.645Z,12.50
2018-06-23T03:53:50.425Z,12.60
2018-06-23T03:56:24.272Z,12.60
2018-06-23T03:58:57.998Z,12.60
2018-06-23T04:01:31.779Z,12.70
2018-06-23T04:04:05.519Z,12.70
2018-06-23T04:06:39.359Z,12.70
2018-06-23T04:09:13.723Z,12.70
2018-06-23T04:11:47.561Z,12.80
2018-06-23T04:14:21.294Z,12.80
2018-06-23T04:16:55.150Z,12.90
2018-06-23T04:19:28.945Z,12.90
2018-06-23T04:22:03.691Z,12.90
2018-06-23T04:24:37.345Z,12.90
2018-06-23T04:29:44.092Z,12.90
2018-06-23T04:32:18.243Z,12.90
2018-06-23T04:34:51.983Z,13.00
2018-06-23T04:37:25.763Z,13.00
2018-06-23T04:39:59.495Z,13.10
2018-06-23T04:42:33.221Z,13.10
2018-06-23T04:45:07.026Z,13.20
2018-06-23T04:47:40.729Z,13.20
2018-06-23T04:50:14.457Z,13.30
2018-06-23T04:52:48.272Z,13.40
2018-06-23T04:57:55.184Z,13.50
2018-06-23T05:00:28.951Z,13.50
2018-06-23T05:03:02.814Z,13.50
2018-06-23T05:05:36.529Z,13.60
2018-06-23T05:08:10.314Z,13.70
2018-06-23T05:10:44.091Z,13.70
2018-06-23T05:13:17.902Z,13.80
2018-06-23T05:15:51.704Z,13.80
2018-06-23T05:18:25.516Z,13.90
2018-06-23T05:20:59.206Z,13.90
2018-06-23T05:23:32.980Z,13.90
2018-06-23T05:26:06.962Z,13.90
2018-06-23T05:28:40.834Z,14.00
2018-06-23T05:31:14.571Z,14.00
2018-06-23T05:33:47.564Z,14.00
2018-06-23T05:36:21.567Z,14.10
2018-06-23T05:38:55.361Z,14.10
2018-06-23T05:41:29.330Z,14.20
2018-06-23T05:44:03.118Z,14.20
2018-06-23T05:46:37.091Z,14.20
2018-06-23T05:49:10.899Z,14.20
2018-06-23T05:51:44.623Z,14.20
2018-06-23T05:54:18.440Z,14.20
2018-06-23T05:56:52.299Z,14.20
2018-06-23T05:59:26.077Z,14.30
2018-06-23T06:01:59.827Z,14.30
2018-06-23T06:04:33.587Z,14.30
2018-06-23T06:07:07.446Z,14.30
2018-06-23T06:09:41.206Z,14.40
2018-06-23T06:14:47.968Z,14.50
2018-06-23T06:17:27.221Z,14.50
2018-06-23T06:20:02.410Z,14.70
2018-06-23T06:22:39.148Z,14.80
2018-06-23T06:25:13.503Z,14.80
2018-06-23T06:27:47.233Z,14.90
2018-06-23T06:30:20.989Z,15.00
2018-06-23T06:32:54.781Z,15.00
2018-06-23T06:35:28.520Z,15.00
2018-06-23T06:38:02.376Z,15.10
2018-06-23T06:40:36.106Z,15.10
2018-06-23T06:43:10.134Z,15.10
2018-06-23T06:45:43.805Z,15.10
2018-06-23T06:48:17.580Z,15.00
2018-06-23T06:50:51.363Z,15.10
2018-06-23T06:53:25.108Z,15.10
2018-06-23T06:55:58.867Z,15.10
2018-06-23T06:58:32.633Z,15.10
2018-06-23T07:01:06.496Z,15.20
2018-06-23T07:03:40.314Z,15.20
2018-06-23T07:06:14.063Z,15.30
2018-06-23T07:08:47.872Z,15.40
2018-06-23T07:11:21.578Z,15.40
2018-06-23T07:13:55.411Z,15.50
2018-06-23T07:16:29.159Z,15.60
2018-06-23T07:19:03.036Z,15.60
2018-06-23T07:21:36.840Z,15.60
2018-06-23T07:24:10.814Z,15.50
2018-06-23T07:26:44.498Z,15.50
2018-06-23T07:29:18.371Z,15.60
2018-06-23T07:31:52.227Z,15.60
2018-06-23T07:34:26.157Z,15.70
2018-06-23T07:36:59.968Z,15.80
2018-06-23T07:39:33.803Z,15.90
2018-06-23T07:42:07.721Z,16.00
2018-06-23T07:44:41.517Z,16.10
2018-06-23T07:47:15.522Z,16.00
2018-06-23T07:49:49.338Z,16.10
2018-06-23T07:52:23.288Z,16.10
2018-06-23T07:54:56.975Z,16.10
2018-06-23T07:57:30.763Z,16.20
2018-06-23T08:00:04.486Z,16.10
2018-06-23T08:02:38.247Z,16.00
2018-06-23T08:05:12.019Z,16.00
2018-06-23T08:07:45.687Z,16.00
2018-06-23T08:10:19.435Z,16.20
2018-06-23T08:12:53.621Z,16.20
2018-06-23T08:15:27.453Z,16.10
2018-06-23T08:18:01.165Z,16.00
2018-06-23T08:20:34.853Z,15.80
2018-06-23T08:23:08.605Z,15.80
2018-06-23T08:25:42.340Z,15.70
2018-06-23T08:28:15.474Z,15.60
2018-06-23T08:30:49.126Z,15.50
2018-06-23T08:33:22.859Z,15.50
2018-06-23T08:35:56.661Z,15.50
2018-06-23T08:38:30.475Z,15.50
2018-06-23T08:41:04.246Z,15.60
2018-06-23T08:43:37.937Z,15.70
2018-06-23T08:46:11.819Z,15.80
2018-06-23T08:48:45.630Z,16.00
2018-06-23T08:51:22.235Z,16.10
2018-06-23T08:53:57.482Z,16.20
2018-06-23T08:56:32.541Z,16.20
2018-06-23T08:59:06.288Z,16.20
2018-06-23T09:01:40.915Z,16.20
2018-06-23T09:04:15.605Z,16.10
2018-06-23T09:06:50.108Z,16.00
2018-06-23T09:09:26.867Z,16.00
2018-06-23T09:14:34.745Z,15.80
2018-06-23T09:17:08.577Z,15.80
2018-06-23T09:19:42.547Z,16.00
2018-06-23T09:22:16.544Z,16.10
2018-06-23T09:24:50.282Z,16.40
2018-06-23T09:27:24.092Z,16.50
2018-06-23T09:29:58.796Z,16.50
2018-06-23T09:32:32.549Z,16.30
2018-06-23T09:35:06.361Z,16.20
2018-06-23T09:37:40.222Z,16.00
2018-06-23T09:40:14.592Z,15.80
2018-06-23T09:42:48.645Z,15.80
2018-06-23T09:45:24.811Z,15.70
2018-06-23T09:47:58.719Z,15.70
2018-06-23T09:50:32.464Z,15.80
2018-06-23T09:53:08.737Z,15.90
2018-06-23T09:55:43.698Z,16.20
2018-06-23T09:58:19.368Z,16.50
2018-06-23T10:00:53.113Z,16.60
2018-06-23T10:03:27.834Z,16.80
2018-06-23T10:06:03.454Z,16.90
2018-06-23T10:08:39.536Z,17.00
2018-06-23T10:11:15.568Z,17.10
2018-06-23T10:13:50.050Z,17.10
2018-06-23T10:16:23.971Z,17.10
2018-06-23T10:18:58.927Z,17.00
2018-06-23T10:21:33.021Z,16.90
2018-06-23T10:24:07.947Z,16.90
2018-06-23T10:26:41.755Z,16.80
2018-06-23T10:29:16.083Z,16.70
2018-06-23T10:31:50.798Z,16.70
2018-06-23T10:34:27.614Z,16.80
2018-06-23T10:37:02.957Z,16.90
2018-06-23T10:39:37.594Z,16.90
2018-06-23T10:42:12.907Z,16.70
2018-06-23T10:44:48.701Z,16.60
2018-06-23T10:47:23.025Z,16.50
2018-06-23T10:49:56.855Z,16.30
2018-06-23T10:52:32.007Z,16.40
2018-06-23T10:55:05.955Z,16.50
2018-06-23T10:57:40.652Z,16.60
2018-06-23T11:00:16.645Z,16.60
2018-06-23T11:02:51.003Z,16.50
2018-06-23T11:05:24.889Z,16.50
2018-06-23T11:07:58.988Z,16.40
2018-06-23T11:10:34.373Z,16.40
2018-06-23T11:13:08.683Z,16.40
2018-06-23T11:15:43.020Z,16.40
2018-06-23T11:18:16.786Z,16.40
2018-06-23T11:20:50.624Z,16.40
2018-06-23T11:23:24.884Z,16.40
2018-06-23T11:26:00.300Z,16.40
2018-06-23T11:28:35.317Z,16.50
2018-06-23T11:31:09.200Z,16.70
2018-06-23T11:33:43.345Z,16.80
2018-06-23T11:36:17.410Z,17.00
2018-06-23T11:38:51.292Z,17.00
2018-06-23T11:41:25.141Z,16.90
2018-06-23T11:43:58.924Z,16.70
2018-06-23T11:46:32.735Z,16.50
2018-06-23T11:49:07.856Z,16.20
2018-06-23T11:51:42.380Z,16.00
2018-06-23T11:54:17.661Z,15.90
2018-06-23T11:56:51.528Z,16.00
2018-06-23T11:59:25.674Z,16.10
2018-06-23T12:02:00.202Z,16.10
2018-06-23T12:04:34.904Z,16.00
2018-06-23T12:07:08.986Z,15.80
2018-06-23T12:09:42.856Z,15.80
2018-06-23T12:12:16.744Z,15.70
2018-06-23T12:14:51.414Z,15.60
2018-06-23T12:17:25.278Z,15.50
2018-06-23T12:19:59.056Z,15.50
2018-06-23T12:22:33.142Z,15.40
2018-06-23T12:25:07.017Z,15.30
2018-06-23T12:27:40.875Z,15.20
2018-06-23T12:30:14.677Z,15.20
2018-06-23T12:32:48.419Z,15.10
2018-06-23T12:35:22.163Z,15.00
2018-06-23T12:37:55.909Z,15.00
2018-06-23T12:40:29.741Z,14.90
2018-06-23T12:43:03.522Z,14.90
2018-06-23T12:45:37.240Z,14.80
2018-06-23T12:48:11.084Z,14.80
2018-06-23T12:53:18.069Z,14.60
2018-06-23T12:55:53.020Z,14.60
2018-06-23T12:58:26.847Z,14.70
2018-06-23T13:01:00.649Z,14.80
2018-06-23T13:03:34.491Z,14.90
2018-06-23T13:06:08.290Z,14.80
2018-06-23T13:08:42.312Z,14.70
2018-06-23T13:11:16.062Z,14.70
2018-06-23T13:13:49.851Z,14.80
2018-06-23T13:16:23.680Z,14.80
2018-06-23T13:21:37.405Z,14.90
2018-06-23T13:24:11.156Z,14.80
2018-06-23T13:26:44.908Z,14.70
2018-06-23T13:29:18.730Z,14.70
2018-06-23T13:31:52.444Z,14.60
2018-06-23T13:34:26.324Z,14.60
2018-06-23T13:37:00.082Z,14.50
2018-06-23T13:39:33.895Z,14.50
2018-06-23T13:42:07.723Z,14.50
2018-06-23T13:44:41.596Z,14.50
2018-06-23T13:47:15.804Z,14.40
2018-06-23T13:49:50.218Z,14.40
2018-06-23T13:52:23.937Z,14.40
2018-06-23T13:54:57.725Z,14.50
2018-06-23T14:00:06.528Z,14.40
2018-06-23T14:02:40.621Z,14.40
2018-06-23T14:05:14.454Z,14.30
2018-06-23T14:07:49.246Z,14.30
2018-06-23T14:10:25.674Z,14.40
2018-06-23T14:12:59.942Z,14.50
2018-06-23T14:15:33.732Z,14.50
2018-06-23T14:18:08.874Z,14.50
2018-06-23T14:20:42.580Z,14.60
2018-06-23T14:23:16.361Z,14.60
2018-06-23T14:25:50.086Z,14.60
2018-06-23T14:28:23.975Z,14.60
2018-06-23T14:30:57.738Z,14.50
2018-06-23T14:33:31.482Z,14.40
2018-06-23T14:38:38.394Z,14.30
2018-06-23T14:41:12.458Z,14.40
2018-06-23T14:43:46.354Z,14.40
2018-06-23T14:46:20.195Z,14.40
2018-06-23T14:48:54.094Z,14.40
2018-06-23T14:51:27.862Z,14.40
2018-06-23T14:54:01.752Z,14.40
2018-06-23T14:56:35.476Z,14.40
2018-06-23T14:59:09.413Z,14.40
2018-06-23T15:01:43.156Z,14.30
2018-06-23T15:04:16.923Z,14.30
2018-06-23T15:06:50.901Z,14.40
2018-06-23T15:09:46.673Z,14.40
2018-06-23T15:12:41.804Z,14.50
2018-06-23T15:15:15.672Z,14.50
2018-06-23T15:17:49.673Z,14.50
2018-06-23T15:20:23.587Z,14.50
2018-06-23T15:22:57.591Z,14.60
2018-06-23T15:25:31.500Z,14.70
2018-06-23T15:28:05.623Z,14.70
2018-06-23T15:30:39.405Z,14.70
2018-06-23T15:33:13.381Z,14.70
2018-06-23T15:35:47.288Z,14.70
2018-06-23T15:38:21.165Z,14.70
2018-06-23T15:40:54.892Z,14.70
2018-06-23T15:43:29.083Z,14.70
2018-06-23T15:46:03.061Z,14.70
2018-06-23T15:48:36.858Z,14.60
2018-06-23T15:51:10.552Z,14.70
2018-06-23T15:53:44.408Z,14.70
2018-06-23T15:56:18.520Z,14.80
2018-06-23T15:58:52.504Z,14.90
2018-06-23T16:01:26.291Z,15.00
2018-06-23T16:04:00.087Z,15.00
2018-06-23T16:06:34.010Z,15.00
2018-06-23T16:09:12.669Z,15.00
2018-06-23T16:11:48.385Z,14.90
2018-06-23T16:14:22.184Z,14.80
2018-06-23T16:16:56.956Z,14.80
2018-06-23T16:19:31.323Z,14.80
2018-06-23T16:22:07.217Z,14.70
2018-06-23T16:24:43.363Z,14.70
2018-06-23T16:27:20.974Z,14.70
2018-06-23T16:29:58.449Z,14.80
2018-06-23T16:32:35.016Z,14.80
2018-06-23T16:35:18.438Z,14.80
2018-06-23T16:37:52.296Z,14.80
2018-06-23T16:40:26.101Z,14.80
2018-06-23T16:42:59.830Z,14.80
2018-06-23T16:45:33.593Z,14.80
2018-06-23T16:48:07.428Z,14.70
2018-06-23T16:50:41.202Z,14.70
2018-06-23T16:55:47.970Z,14.60
2018-06-23T16:58:21.636Z,14.60
2018-06-23T17:00:55.387Z,14.60
2018-06-23T17:03:29.212Z,14.70
2018-06-23T17:06:02.942Z,14.60
2018-06-23T17:08:36.632Z,14.60
2018-06-23T17:11:10.404Z,14.60
2018-06-23T17:13:44.100Z,14.50
2018-06-23T17:16:17.819Z,14.50
2018-06-23T17:18:51.530Z,14.50
2018-06-23T17:21:25.228Z,14.50
2018-06-23T17:23:58.954Z,14.50
2018-06-23T17:26:32.704Z,14.50
2018-06-23T17:29:06.587Z,14.50
2018-06-23T17:31:40.482Z,14.60
2018-06-23T17:34:14.284Z,14.60
2018-06-23T17:36:47.983Z,14.60
2018-06-23T17:39:21.749Z,14.60
2018-06-23T17:41:55.723Z,14.60
2018-06-23T17:44:29.466Z,14.50
2018-06-23T17:47:03.342Z,14.50
2018-06-23T17:49:37.074Z,14.60
2018-06-23T17:52:10.931Z,14.50
2018-06-23T17:54:44.646Z,14.50
2018-06-23T17:57:18.690Z,14.50
2018-06-23T17:59:52.479Z,14.50
2018-06-23T18:02:26.393Z,14.40
2018-06-23T18:05:00.121Z,14.30
2018-06-23T18:07:34.716Z,14.30
2018-06-23T18:10:08.556Z,14.20
2018-06-23T18:12:42.389Z,14.20
2018-06-23T18:15:16.148Z,14.10
2018-06-23T18:17:49.986Z,14.10
2018-06-23T18:20:23.724Z,14.10
2018-06-23T18:22:57.532Z,14.10
2018-06-23T18:25:31.285Z,14.00
2018-06-23T18:28:05.062Z,13.90
2018-06-23T18:30:38.784Z,13.90
2018-06-23T18:33:12.497Z,13.80
2018-06-23T18:35:46.197Z,13.80
2018-06-23T18:38:19.884Z,13.70
2018-06-23T18:40:53.617Z,13.70
2018-06-23T18:46:00.335Z,13.70
2018-06-23T18:48:34.104Z,13.70
2018-06-23T18:51:07.873Z,13.60
2018-06-23T18:53:41.556Z,13.60
2018-06-23T18:56:15.266Z,13.60
2018-06-23T18:58:49.677Z,13.70
2018-06-23T19:01:23.396Z,13.60
2018-06-23T19:03:57.364Z,13.60
2018-06-23T19:06:32.002Z,13.60
2018-06-23T19:09:07.668Z,13.60
2018-06-23T19:11:41.496Z,13.60
2018-06-23T19:14:15.219Z,13.60
2018-06-23T19:16:49.018Z,13.50
2018-06-23T19:19:22.770Z,13.60
2018-06-23T19:21:56.580Z,13.50
2018-06-23T19:24:30.560Z,13.50
2018-06-23T19:27:04.369Z,13.50
2018-06-23T19:29:38.174Z,13.50
2018-06-23T19:32:12.047Z,13.50
2018-06-23T19:34:45.780Z,13.50
2018-06-23T19:37:19.572Z,13.60
2018-06-23T19:39:53.248Z,13.60
2018-06-23T19:42:27.027Z,13.50
2018-06-23T19:45:00.785Z,13.50
2018-06-23T19:47:35.945Z,13.50
2018-06-23T19:50:09.783Z,13.50
2018-06-23T19:52:43.536Z,13.60
2018-06-23T19:55:17.542Z,13.60
2018-06-23T19:57:51.528Z,13.50
2018-06-23T20:00:25.196Z,13.50
2018-06-23T20:02:58.901Z,13.60
2018-06-23T20:05:32.637Z,13.50
2018-06-23T20:08:06.362Z,13.60
2018-06-23T20:10:40.058Z,13.50
2018-06-23T20:13:13.743Z,13.50
2018-06-23T20:15:47.498Z,13.60
2018-06-23T20:18:21.388Z,13.50
2018-06-23T20:20:55.404Z,13.60
2018-06-23T20:23:29.202Z,13.60
2018-06-23T20:26:02.845Z,13.50
2018-06-23T20:28:36.644Z,13.50
2018-06-23T20:31:10.529Z,13.50
2018-06-23T20:33:44.349Z,13.40
2018-06-23T20:36:18.241Z,13.40
2018-06-23T20:38:53.971Z,13.40
2018-06-23T20:41:28.313Z,13.40
2018-06-23T20:44:02.360Z,13.50
2018-06-23T20:46:36.160Z,13.50
2018-06-23T20:49:10.150Z,13.50
2018-06-23T20:51:45.275Z,13.50
2018-06-23T20:54:19.599Z,13.60
2018-06-23T20:56:53.425Z,13.50
2018-06-23T20:59:27.443Z,13.50
2018-06-23T21:02:01.387Z,13.50
2018-06-23T21:04:35.318Z,13.50
2018-06-23T21:07:09.351Z,13.50
2018-06-23T21:09:43.833Z,13.50
2018-06-23T21:12:17.577Z,13.50
2018-06-23T21:14:51.487Z,13.60
2018-06-23T21:17:26.470Z,13.60
2018-06-23T21:20:00.579Z,13.60
2018-06-23T21:22:34.356Z,13.60
2018-06-23T21:25:08.268Z,13.60
2018-06-23T21:27:42.016Z,13.50
2018-06-23T21:30:17.038Z,13.50
2018-06-23T21:32:50.767Z,13.50
2018-06-23T21:35:26.539Z,13.50
2018-06-23T21:38:00.942Z,13.50
2018-06-23T21:40:34.773Z,13.50
2018-06-23T21:43:08.520Z,13.50
2018-06-23T21:45:47.744Z,13.50
2018-06-23T21:48:24.142Z,13.50
2018-06-23T21:50:59.926Z,13.50
2018-06-23T21:53:36.496Z,13.50
2018-06-23T21:56:12.805Z,13.40
2018-06-23T21:58:47.505Z,13.40
2018-06-23T22:01:22.069Z,13.40
2018-06-23T22:03:58.261Z,13.40
2018-06-23T22:06:32.673Z,13.50
2018-06-23T22:09:11.706Z,13.50
2018-06-23T22:11:46.631Z,13.50
2018-06-23T22:14:21.643Z,13.50
2018-06-23T22:16:55.392Z,13.50
2018-06-23T22:19:34.336Z,13.50
2018-06-23T22:22:16.331Z,13.50
2018-06-23T22:24:53.201Z,13.40
2018-06-23T22:27:29.897Z,13.40
2018-06-23T22:30:09.583Z,13.50
2018-06-23T22:32:46.192Z,13.40
2018-06-23T22:35:24.389Z,13.50
2018-06-23T22:38:04.608Z,13.50
2018-06-23T22:40:45.264Z,13.40
2018-06-23T22:43:26.167Z,13.50
2018-06-23T22:46:08.251Z,13.40
2018-06-23T22:48:51.334Z,13.40
2018-06-23T22:51:26.540Z,13.40
2018-06-23T22:54:01.741Z,13.40
2018-06-23T22:56:36.584Z,13.40
2018-06-23T22:59:11.064Z,13.40
2018-06-23T23:01:45.895Z,13.40
2018-06-23T23:04:19.719Z,13.40
2018-06-23T23:06:53.893Z,13.40
2018-06-23T23:09:27.657Z,13.40
2018-06-23T23:12:01.498Z,13.40
2018-06-23T23:14:35.186Z,13.40
2018-06-23T23:17:08.976Z,13.40
2018-06-23T23:19:42.751Z,13.40
2018-06-23T23:22:16.438Z,13.40
2018-06-23T23:24:50.137Z,13.40
2018-06-23T23:27:24.524Z,13.40
2018-06-23T23:29:58.305Z,13.30
2018-06-23T23:32:31.987Z,13.30
2018-06-23T23:35:05.679Z,13.30
2018-06-23T23:37:39.437Z,13.30
2018-06-23T23:40:13.114Z,13.30
2018-06-23T23:42:46.849Z,13.30
2018-06-23T23:45:20.535Z,13.30
2018-06-23T23:47:54.244Z,13.30
2018-06-23T23:50:27.969Z,13.30
2018-06-23T23:53:01.681Z,13.20
2018-06-23T23:55:35.406Z,13.30
2018-06-23T23:58:09.256Z,13.30
